sensor_id;sensor_type;location;lat;lon;timestamp;P1;durP1;ratioP1;P2;durP2;ratioP2
47103;SDS011;32853;52.164;5.400;2024-01-25T00:01:22;23.63;;;1.80;;
47103;SDS011;32853;52.164;5.400;2024-01-25T00:03:48;14.68;;;1.88;;
47103;SDS011;32853;52.164;5.400;2024-01-25T00:06:13;19.08;;;2.75;;
47103;SDS011;32853;52.164;5.400;2024-01-25T00:08:42;19.88;;;2.10;;
47103;SDS011;32853;52.164;5.400;2024-01-25T00:11:08;9.35;;;1.90;;
47103;SDS011;32853;52.164;5.400;2024-01-25T00:13:36;20.75;;;2.75;;
47103;SDS011;32853;52.164;5.400;2024-01-25T00:16:14;19.58;;;2.67;;
47103;SDS011;32853;52.164;5.400;2024-01-25T00:21:27;14.93;;;2.58;;
47103;SDS011;32853;52.164;5.400;2024-01-25T00:23:57;27.38;;;2.42;;
47103;SDS011;32853;52.164;5.400;2024-01-25T00:26:25;25.88;;;2.20;;
47103;SDS011;32853;52.164;5.400;2024-01-25T00:28:54;23.88;;;2.20;;
47103;SDS011;32853;52.164;5.400;2024-01-25T00:31:21;24.48;;;3.42;;
47103;SDS011;32853;52.164;5.400;2024-01-25T00:33:52;20.52;;;2.47;;
47103;SDS011;32853;52.164;5.400;2024-01-25T00:36:18;15.23;;;1.98;;
47103;SDS011;32853;52.164;5.400;2024-01-25T00:38:43;20.58;;;2.53;;
47103;SDS011;32853;52.164;5.400;2024-01-25T00:41:09;21.98;;;2.55;;
47103;SDS011;32853;52.164;5.400;2024-01-25T00:46:11;11.63;;;2.35;;
47103;SDS011;32853;52.164;5.400;2024-01-25T00:48:39;34.38;;;2.25;;
47103;SDS011;32853;52.164;5.400;2024-01-25T00:51:11;25.42;;;2.53;;
47103;SDS011;32853;52.164;5.400;2024-01-25T00:53:40;20.25;;;1.75;;
47103;SDS011;32853;52.164;5.400;2024-01-25T00:56:15;25.33;;;2.63;;
47103;SDS011;32853;52.164;5.400;2024-01-25T00:58:45;29.23;;;4.22;;
47103;SDS011;32853;52.164;5.400;2024-01-25T01:01:11;31.92;;;3.42;;
47103;SDS011;32853;52.164;5.400;2024-01-25T01:03:45;33.55;;;3.28;;
47103;SDS011;32853;52.164;5.400;2024-01-25T01:06:19;20.60;;;2.03;;
47103;SDS011;32853;52.164;5.400;2024-01-25T01:08:49;25.02;;;2.60;;
47103;SDS011;32853;52.164;5.400;2024-01-25T01:11:21;23.70;;;2.35;;
47103;SDS011;32853;52.164;5.400;2024-01-25T01:13:46;19.02;;;2.45;;
47103;SDS011;32853;52.164;5.400;2024-01-25T01:16:12;15.27;;;2.20;;
47103;SDS011;32853;52.164;5.400;2024-01-25T01:18:37;21.27;;;2.22;;
47103;SDS011;32853;52.164;5.400;2024-01-25T01:21:04;27.02;;;2.33;;
47103;SDS011;32853;52.164;5.400;2024-01-25T01:23:29;25.48;;;2.42;;
47103;SDS011;32853;52.164;5.400;2024-01-25T01:25:55;31.38;;;3.55;;
47103;SDS011;32853;52.164;5.400;2024-01-25T01:28:20;17.75;;;2.42;;
47103;SDS011;32853;52.164;5.400;2024-01-25T01:30:49;35.83;;;2.85;;
47103;SDS011;32853;52.164;5.400;2024-01-25T01:33:14;24.48;;;2.38;;
47103;SDS011;32853;52.164;5.400;2024-01-25T01:35:40;17.52;;;2.38;;
47103;SDS011;32853;52.164;5.400;2024-01-25T01:38:08;16.65;;;2.13;;
47103;SDS011;32853;52.164;5.400;2024-01-25T01:40:33;15.73;;;2.22;;
47103;SDS011;32853;52.164;5.400;2024-01-25T01:42:59;26.60;;;2.85;;
47103;SDS011;32853;52.164;5.400;2024-01-25T01:45:25;19.95;;;3.15;;
47103;SDS011;32853;52.164;5.400;2024-01-25T01:47:54;18.50;;;3.42;;
47103;SDS011;32853;52.164;5.400;2024-01-25T01:50:21;21.30;;;2.22;;
47103;SDS011;32853;52.164;5.400;2024-01-25T01:52:49;16.70;;;2.15;;
47103;SDS011;32853;52.164;5.400;2024-01-25T01:55:16;22.95;;;2.13;;
47103;SDS011;32853;52.164;5.400;2024-01-25T01:57:42;21.30;;;3.10;;
47103;SDS011;32853;52.164;5.400;2024-01-25T02:00:08;30.02;;;3.00;;
47103;SDS011;32853;52.164;5.400;2024-01-25T02:02:35;12.38;;;1.75;;
47103;SDS011;32853;52.164;5.400;2024-01-25T02:05:00;23.48;;;2.15;;
47103;SDS011;32853;52.164;5.400;2024-01-25T02:10:11;12.95;;;2.53;;
47103;SDS011;32853;52.164;5.400;2024-01-25T02:12:36;20.40;;;2.13;;
47103;SDS011;32853;52.164;5.400;2024-01-25T02:15:03;31.90;;;2.72;;
47103;SDS011;32853;52.164;5.400;2024-01-25T02:17:28;16.83;;;2.25;;
47103;SDS011;32853;52.164;5.400;2024-01-25T02:19:54;19.02;;;3.90;;
47103;SDS011;32853;52.164;5.400;2024-01-25T02:22:19;22.55;;;3.05;;
47103;SDS011;32853;52.164;5.400;2024-01-25T02:24:45;16.35;;;2.38;;
47103;SDS011;32853;52.164;5.400;2024-01-25T02:27:10;19.42;;;2.72;;
47103;SDS011;32853;52.164;5.400;2024-01-25T02:29:36;27.30;;;2.65;;
47103;SDS011;32853;52.164;5.400;2024-01-25T02:32:02;12.18;;;2.50;;
47103;SDS011;32853;52.164;5.400;2024-01-25T02:34:27;20.20;;;2.25;;
47103;SDS011;32853;52.164;5.400;2024-01-25T02:37:01;18.80;;;2.35;;
47103;SDS011;32853;52.164;5.400;2024-01-25T02:39:27;19.50;;;2.10;;
47103;SDS011;32853;52.164;5.400;2024-01-25T02:41:53;10.98;;;1.52;;
47103;SDS011;32853;52.164;5.400;2024-01-25T02:44:18;21.20;;;2.15;;
47103;SDS011;32853;52.164;5.400;2024-01-25T02:46:44;18.08;;;2.25;;
47103;SDS011;32853;52.164;5.400;2024-01-25T02:49:10;19.85;;;3.10;;
47103;SDS011;32853;52.164;5.400;2024-01-25T02:51:36;29.30;;;2.65;;
47103;SDS011;32853;52.164;5.400;2024-01-25T02:54:01;27.05;;;2.72;;
47103;SDS011;32853;52.164;5.400;2024-01-25T02:56:29;19.23;;;2.28;;
47103;SDS011;32853;52.164;5.400;2024-01-25T02:59:06;16.23;;;2.35;;
47103;SDS011;32853;52.164;5.400;2024-01-25T03:01:39;22.73;;;2.57;;
47103;SDS011;32853;52.164;5.400;2024-01-25T03:04:13;18.35;;;3.03;;
47103;SDS011;32853;52.164;5.400;2024-01-25T03:06:42;13.15;;;1.27;;
47103;SDS011;32853;52.164;5.400;2024-01-25T03:11:56;11.25;;;2.75;;
47103;SDS011;32853;52.164;5.400;2024-01-25T03:14:21;17.25;;;2.20;;
47103;SDS011;32853;52.164;5.400;2024-01-25T03:19:18;22.67;;;2.70;;
47103;SDS011;32853;52.164;5.400;2024-01-25T03:21:43;35.03;;;3.25;;
47103;SDS011;32853;52.164;5.400;2024-01-25T03:24:09;27.48;;;2.70;;
47103;SDS011;32853;52.164;5.400;2024-01-25T03:26:39;27.23;;;2.97;;
47103;SDS011;32853;52.164;5.400;2024-01-25T03:29:13;20.48;;;2.28;;
47103;SDS011;32853;52.164;5.400;2024-01-25T03:31:38;19.05;;;2.85;;
47103;SDS011;32853;52.164;5.400;2024-01-25T03:34:04;24.73;;;2.85;;
47103;SDS011;32853;52.164;5.400;2024-01-25T03:36:30;27.67;;;2.90;;
47103;SDS011;32853;52.164;5.400;2024-01-25T03:38:56;22.77;;;2.75;;
47103;SDS011;32853;52.164;5.400;2024-01-25T03:41:21;26.20;;;2.50;;
47103;SDS011;32853;52.164;5.400;2024-01-25T03:43:48;23.23;;;2.50;;
47103;SDS011;32853;52.164;5.400;2024-01-25T03:46:18;12.13;;;2.45;;
47103;SDS011;32853;52.164;5.400;2024-01-25T03:48:46;18.02;;;3.05;;
47103;SDS011;32853;52.164;5.400;2024-01-25T03:51:11;34.00;;;3.55;;
47103;SDS011;32853;52.164;5.400;2024-01-25T03:53:40;20.95;;;2.88;;
47103;SDS011;32853;52.164;5.400;2024-01-25T03:56:11;27.30;;;2.88;;
47103;SDS011;32853;52.164;5.400;2024-01-25T03:58:49;25.40;;;2.67;;
47103;SDS011;32853;52.164;5.400;2024-01-25T04:01:15;23.42;;;2.80;;
47103;SDS011;32853;52.164;5.400;2024-01-25T04:03:43;26.45;;;2.85;;
47103;SDS011;32853;52.164;5.400;2024-01-25T04:06:09;26.85;;;2.85;;
47103;SDS011;32853;52.164;5.400;2024-01-25T04:08:35;30.55;;;3.58;;
47103;SDS011;32853;52.164;5.400;2024-01-25T04:11:03;35.03;;;5.43;;
47103;SDS011;32853;52.164;5.400;2024-01-25T04:13:33;18.15;;;5.28;;
47103;SDS011;32853;52.164;5.400;2024-01-25T04:16:08;20.95;;;2.85;;
47103;SDS011;32853;52.164;5.400;2024-01-25T04:21:03;19.40;;;1.95;;
47103;SDS011;32853;52.164;5.400;2024-01-25T04:26:18;28.73;;;3.13;;
47103;SDS011;32853;52.164;5.400;2024-01-25T04:31:29;21.70;;;2.30;;
47103;SDS011;32853;52.164;5.400;2024-01-25T04:33:54;24.05;;;2.53;;
47103;SDS011;32853;52.164;5.400;2024-01-25T04:36:34;20.45;;;2.30;;
47103;SDS011;32853;52.164;5.400;2024-01-25T04:39:08;12.45;;;1.85;;
47103;SDS011;32853;52.164;5.400;2024-01-25T04:41:34;22.08;;;2.60;;
47103;SDS011;32853;52.164;5.400;2024-01-25T04:44:01;26.30;;;3.25;;
47103;SDS011;32853;52.164;5.400;2024-01-25T04:46:33;28.55;;;3.30;;
47103;SDS011;32853;52.164;5.400;2024-01-25T04:49:02;24.45;;;2.45;;
47103;SDS011;32853;52.164;5.400;2024-01-25T04:51:30;26.00;;;2.17;;
47103;SDS011;32853;52.164;5.400;2024-01-25T04:54:08;30.20;;;2.47;;
47103;SDS011;32853;52.164;5.400;2024-01-25T04:56:39;28.80;;;2.38;;
47103;SDS011;32853;52.164;5.400;2024-01-25T04:59:09;23.58;;;2.17;;
47103;SDS011;32853;52.164;5.400;2024-01-25T05:01:49;24.85;;;2.42;;
47103;SDS011;32853;52.164;5.400;2024-01-25T05:04:28;28.48;;;2.60;;
47103;SDS011;32853;52.164;5.400;2024-01-25T05:09:28;33.63;;;2.30;;
47103;SDS011;32853;52.164;5.400;2024-01-25T05:12:01;33.28;;;3.13;;
47103;SDS011;32853;52.164;5.400;2024-01-25T05:16:56;27.27;;;2.45;;
47103;SDS011;32853;52.164;5.400;2024-01-25T05:19:22;22.65;;;2.42;;
47103;SDS011;32853;52.164;5.400;2024-01-25T05:21:48;26.70;;;3.17;;
47103;SDS011;32853;52.164;5.400;2024-01-25T05:24:18;12.50;;;2.63;;
47103;SDS011;32853;52.164;5.400;2024-01-25T05:26:47;27.65;;;2.70;;
47103;SDS011;32853;52.164;5.400;2024-01-25T05:29:18;32.22;;;3.92;;
47103;SDS011;32853;52.164;5.400;2024-01-25T05:31:50;22.35;;;2.25;;
47103;SDS011;32853;52.164;5.400;2024-01-25T05:34:16;26.08;;;2.50;;
47103;SDS011;32853;52.164;5.400;2024-01-25T05:36:50;35.55;;;3.45;;
47103;SDS011;32853;52.164;5.400;2024-01-25T05:39:16;25.23;;;2.60;;
47103;SDS011;32853;52.164;5.400;2024-01-25T05:41:42;33.55;;;2.22;;
47103;SDS011;32853;52.164;5.400;2024-01-25T05:44:10;19.77;;;2.58;;
47103;SDS011;32853;52.164;5.400;2024-01-25T05:46:36;19.38;;;2.30;;
47103;SDS011;32853;52.164;5.400;2024-01-25T05:49:02;19.08;;;2.22;;
47103;SDS011;32853;52.164;5.400;2024-01-25T05:51:29;13.98;;;2.28;;
47103;SDS011;32853;52.164;5.400;2024-01-25T05:53:55;16.95;;;1.95;;
47103;SDS011;32853;52.164;5.400;2024-01-25T05:56:21;29.83;;;3.55;;
47103;SDS011;32853;52.164;5.400;2024-01-25T05:58:54;21.40;;;3.30;;
47103;SDS011;32853;52.164;5.400;2024-01-25T06:01:19;18.73;;;2.55;;
47103;SDS011;32853;52.164;5.400;2024-01-25T06:03:49;30.35;;;4.10;;
47103;SDS011;32853;52.164;5.400;2024-01-25T06:06:14;18.75;;;2.10;;
47103;SDS011;32853;52.164;5.400;2024-01-25T06:08:40;23.83;;;2.22;;
47103;SDS011;32853;52.164;5.400;2024-01-25T06:11:05;19.67;;;2.35;;
47103;SDS011;32853;52.164;5.400;2024-01-25T06:13:31;20.88;;;3.17;;
47103;SDS011;32853;52.164;5.400;2024-01-25T06:15:57;26.35;;;2.42;;
47103;SDS011;32853;52.164;5.400;2024-01-25T06:18:22;19.42;;;2.20;;
47103;SDS011;32853;52.164;5.400;2024-01-25T06:20:47;15.05;;;2.20;;
47103;SDS011;32853;52.164;5.400;2024-01-25T06:23:15;13.85;;;2.33;;
47103;SDS011;32853;52.164;5.400;2024-01-25T06:25:48;24.13;;;2.95;;
47103;SDS011;32853;52.164;5.400;2024-01-25T06:28:35;19.90;;;2.55;;
47103;SDS011;32853;52.164;5.400;2024-01-25T06:31:10;22.45;;;2.38;;
47103;SDS011;32853;52.164;5.400;2024-01-25T06:33:46;21.30;;;3.63;;
47103;SDS011;32853;52.164;5.400;2024-01-25T06:38:57;22.63;;;1.88;;
47103;SDS011;32853;52.164;5.400;2024-01-25T06:41:24;28.75;;;2.88;;
47103;SDS011;32853;52.164;5.400;2024-01-25T06:43:55;19.45;;;2.42;;
47103;SDS011;32853;52.164;5.400;2024-01-25T06:46:21;27.17;;;3.38;;
47103;SDS011;32853;52.164;5.400;2024-01-25T06:49:00;17.05;;;2.10;;
47103;SDS011;32853;52.164;5.400;2024-01-25T06:51:25;28.80;;;3.47;;
47103;SDS011;32853;52.164;5.400;2024-01-25T06:53:51;31.77;;;3.60;;
47103;SDS011;32853;52.164;5.400;2024-01-25T06:56:17;23.15;;;3.88;;
47103;SDS011;32853;52.164;5.400;2024-01-25T06:58:53;22.05;;;1.70;;
47103;SDS011;32853;52.164;5.400;2024-01-25T07:01:37;27.38;;;2.58;;
47103;SDS011;32853;52.164;5.400;2024-01-25T07:04:10;16.63;;;2.50;;
47103;SDS011;32853;52.164;5.400;2024-01-25T07:06:43;21.88;;;3.13;;
47103;SDS011;32853;52.164;5.400;2024-01-25T07:09:09;16.83;;;3.60;;
47103;SDS011;32853;52.164;5.400;2024-01-25T07:11:34;19.38;;;3.08;;
47103;SDS011;32853;52.164;5.400;2024-01-25T07:14:05;23.58;;;2.65;;
47103;SDS011;32853;52.164;5.400;2024-01-25T07:16:50;28.65;;;3.10;;
47103;SDS011;32853;52.164;5.400;2024-01-25T07:19:16;30.58;;;4.40;;
47103;SDS011;32853;52.164;5.400;2024-01-25T07:21:53;18.48;;;3.38;;
47103;SDS011;32853;52.164;5.400;2024-01-25T07:24:24;35.00;;;4.13;;
47103;SDS011;32853;52.164;5.400;2024-01-25T07:26:55;19.23;;;3.88;;
47103;SDS011;32853;52.164;5.400;2024-01-25T07:29:20;12.40;;;2.65;;
47103;SDS011;32853;52.164;5.400;2024-01-25T07:31:58;34.97;;;4.80;;
47103;SDS011;32853;52.164;5.400;2024-01-25T08:19:25;31.20;;;4.57;;
47103;SDS011;32853;52.164;5.400;2024-01-25T08:22:06;32.03;;;3.60;;
47103;SDS011;32853;52.164;5.400;2024-01-25T08:24:34;36.25;;;5.05;;
47103;SDS011;32853;52.164;5.400;2024-01-25T08:30:05;24.02;;;4.63;;
47103;SDS011;32853;52.164;5.400;2024-01-25T08:42:01;20.45;;;5.43;;
47103;SDS011;32853;52.164;5.400;2024-01-25T08:44:43;29.23;;;6.07;;
47103;SDS011;32853;52.164;5.400;2024-01-25T08:47:17;35.55;;;7.65;;
47103;SDS011;32853;52.164;5.400;2024-01-25T08:49:51;34.65;;;7.07;;
47103;SDS011;32853;52.164;5.400;2024-01-25T08:52:23;25.42;;;7.88;;
47103;SDS011;32853;52.164;5.400;2024-01-25T08:54:49;27.75;;;7.30;;
47103;SDS011;32853;52.164;5.400;2024-01-25T08:57:19;22.80;;;7.65;;
47103;SDS011;32853;52.164;5.400;2024-01-25T08:59:50;25.73;;;7.13;;
47103;SDS011;32853;52.164;5.400;2024-01-25T09:02:31;37.65;;;7.47;;
47103;SDS011;32853;52.164;5.400;2024-01-25T09:05:12;29.42;;;5.65;;
47103;SDS011;32853;52.164;5.400;2024-01-25T09:08:08;25.25;;;5.75;;
47103;SDS011;32853;52.164;5.400;2024-01-25T09:10:46;29.50;;;6.55;;
47103;SDS011;32853;52.164;5.400;2024-01-25T09:13:40;23.15;;;5.35;;
47103;SDS011;32853;52.164;5.400;2024-01-25T09:16:21;40.58;;;6.35;;
47103;SDS011;32853;52.164;5.400;2024-01-25T09:18:56;25.83;;;5.10;;
47103;SDS011;32853;52.164;5.400;2024-01-25T09:24:48;25.42;;;4.70;;
47103;SDS011;32853;52.164;5.400;2024-01-25T09:27:32;26.17;;;5.32;;
47103;SDS011;32853;52.164;5.400;2024-01-25T09:29:58;35.83;;;5.15;;
47103;SDS011;32853;52.164;5.400;2024-01-25T09:32:33;24.75;;;4.60;;
47103;SDS011;32853;52.164;5.400;2024-01-25T09:35:05;15.20;;;5.45;;
47103;SDS011;32853;52.164;5.400;2024-01-25T09:37:47;25.95;;;3.83;;
47103;SDS011;32853;52.164;5.400;2024-01-25T09:40:18;21.15;;;4.05;;
47103;SDS011;32853;52.164;5.400;2024-01-25T09:43:09;16.80;;;3.13;;
47103;SDS011;32853;52.164;5.400;2024-01-25T09:48:47;24.52;;;4.43;;
47103;SDS011;32853;52.164;5.400;2024-01-25T09:51:19;27.52;;;3.40;;
47103;SDS011;32853;52.164;5.400;2024-01-25T09:53:58;30.95;;;4.28;;
47103;SDS011;32853;52.164;5.400;2024-01-25T09:56:36;26.77;;;3.30;;
47103;SDS011;32853;52.164;5.400;2024-01-25T09:59:13;33.40;;;3.85;;
47103;SDS011;32853;52.164;5.400;2024-01-25T10:05:02;17.38;;;2.58;;
47103;SDS011;32853;52.164;5.400;2024-01-25T10:07:46;36.35;;;3.35;;
47103;SDS011;32853;52.164;5.400;2024-01-25T10:10:38;19.23;;;2.72;;
47103;SDS011;32853;52.164;5.400;2024-01-25T10:13:06;27.33;;;3.63;;
47103;SDS011;32853;52.164;5.400;2024-01-25T10:15:47;24.63;;;3.55;;
47103;SDS011;32853;52.164;5.400;2024-01-25T10:21:20;24.92;;;3.88;;
47103;SDS011;32853;52.164;5.400;2024-01-25T10:29:43;20.77;;;3.60;;
47103;SDS011;32853;52.164;5.400;2024-01-25T10:32:13;25.85;;;3.72;;
47103;SDS011;32853;52.164;5.400;2024-01-25T10:37:59;21.48;;;3.30;;
47103;SDS011;32853;52.164;5.400;2024-01-25T10:40:26;25.63;;;5.13;;
47103;SDS011;32853;52.164;5.400;2024-01-25T10:43:03;24.48;;;4.57;;
47103;SDS011;32853;52.164;5.400;2024-01-25T10:45:29;26.85;;;4.72;;
47103;SDS011;32853;52.164;5.400;2024-01-25T10:47:57;16.75;;;3.17;;
47103;SDS011;32853;52.164;5.400;2024-01-25T10:50:24;29.10;;;3.85;;
47103;SDS011;32853;52.164;5.400;2024-01-25T10:52:51;36.13;;;4.82;;
47103;SDS011;32853;52.164;5.400;2024-01-25T10:55:17;23.52;;;3.63;;
47103;SDS011;32853;52.164;5.400;2024-01-25T11:04:11;17.70;;;3.50;;
47103;SDS011;32853;52.164;5.400;2024-01-25T11:10:26;32.05;;;4.10;;
47103;SDS011;32853;52.164;5.400;2024-01-25T11:16:27;25.92;;;3.60;;
47103;SDS011;32853;52.164;5.400;2024-01-25T11:18:57;17.88;;;2.83;;
47103;SDS011;32853;52.164;5.400;2024-01-25T11:21:41;18.77;;;2.92;;
47103;SDS011;32853;52.164;5.400;2024-01-25T11:27:07;20.92;;;3.35;;
47103;SDS011;32853;52.164;5.400;2024-01-25T11:29:38;23.13;;;3.97;;
47103;SDS011;32853;52.164;5.400;2024-01-25T11:32:14;23.55;;;4.03;;
47103;SDS011;32853;52.164;5.400;2024-01-25T11:34:39;27.23;;;4.75;;
47103;SDS011;32853;52.164;5.400;2024-01-25T11:37:05;18.25;;;2.55;;
47103;SDS011;32853;52.164;5.400;2024-01-25T11:39:31;26.55;;;3.75;;
47103;SDS011;32853;52.164;5.400;2024-01-25T11:41:59;21.98;;;3.75;;
47103;SDS011;32853;52.164;5.400;2024-01-25T11:44:30;24.95;;;3.70;;
47103;SDS011;32853;52.164;5.400;2024-01-25T11:46:59;25.67;;;3.97;;
47103;SDS011;32853;52.164;5.400;2024-01-25T11:49:24;22.95;;;5.53;;
47103;SDS011;32853;52.164;5.400;2024-01-25T11:51:50;27.95;;;4.13;;
47103;SDS011;32853;52.164;5.400;2024-01-25T11:54:27;40.78;;;3.95;;
47103;SDS011;32853;52.164;5.400;2024-01-25T11:57:14;36.95;;;4.30;;
47103;SDS011;32853;52.164;5.400;2024-01-25T12:00:00;18.10;;;2.45;;
47103;SDS011;32853;52.164;5.400;2024-01-25T12:03:04;25.42;;;4.53;;
47103;SDS011;32853;52.164;5.400;2024-01-25T12:05:47;32.72;;;3.90;;
47103;SDS011;32853;52.164;5.400;2024-01-25T12:08:27;17.85;;;3.25;;
47103;SDS011;32853;52.164;5.400;2024-01-25T12:22:29;21.98;;;3.88;;
47103;SDS011;32853;52.164;5.400;2024-01-25T12:24:57;24.40;;;4.10;;
47103;SDS011;32853;52.164;5.400;2024-01-25T12:27:52;16.02;;;3.72;;
47103;SDS011;32853;52.164;5.400;2024-01-25T12:40:13;21.77;;;2.55;;
47103;SDS011;32853;52.164;5.400;2024-01-25T12:43:07;26.13;;;3.58;;
47103;SDS011;32853;52.164;5.400;2024-01-25T12:48:46;31.13;;;5.15;;
47103;SDS011;32853;52.164;5.400;2024-01-25T12:51:28;25.58;;;3.83;;
47103;SDS011;32853;52.164;5.400;2024-01-25T12:54:03;45.05;;;4.57;;
47103;SDS011;32853;52.164;5.400;2024-01-25T12:56:43;21.83;;;3.25;;
47103;SDS011;32853;52.164;5.400;2024-01-25T13:03:22;31.63;;;5.22;;
47103;SDS011;32853;52.164;5.400;2024-01-25T13:09:23;18.38;;;3.25;;
47103;SDS011;32853;52.164;5.400;2024-01-25T13:15:04;28.15;;;4.00;;
47103;SDS011;32853;52.164;5.400;2024-01-25T13:18:17;33.45;;;5.47;;
47103;SDS011;32853;52.164;5.400;2024-01-25T13:21:08;28.00;;;3.75;;
47103;SDS011;32853;52.164;5.400;2024-01-25T13:30:02;27.50;;;4.65;;
47103;SDS011;32853;52.164;5.400;2024-01-25T13:32:44;39.17;;;4.20;;
47103;SDS011;32853;52.164;5.400;2024-01-25T13:35:24;30.70;;;5.05;;
47103;SDS011;32853;52.164;5.400;2024-01-25T14:03:38;42.70;;;5.28;;
47103;SDS011;32853;52.164;5.400;2024-01-25T14:06:45;29.27;;;5.75;;
47103;SDS011;32853;52.164;5.400;2024-01-25T14:09:42;30.00;;;6.25;;
47103;SDS011;32853;52.164;5.400;2024-01-25T14:13:04;31.58;;;6.18;;
47103;SDS011;32853;52.164;5.400;2024-01-25T14:18:49;28.85;;;6.32;;
47103;SDS011;32853;52.164;5.400;2024-01-25T14:25:26;24.98;;;5.68;;
47103;SDS011;32853;52.164;5.400;2024-01-25T14:34:10;31.02;;;7.50;;
47103;SDS011;32853;52.164;5.400;2024-01-25T14:36:59;31.88;;;5.82;;
47103;SDS011;32853;52.164;5.400;2024-01-25T14:39:39;32.83;;;6.63;;
47103;SDS011;32853;52.164;5.400;2024-01-25T14:42:12;18.65;;;6.03;;
47103;SDS011;32853;52.164;5.400;2024-01-25T14:44:42;32.72;;;6.75;;
47103;SDS011;32853;52.164;5.400;2024-01-25T14:47:22;36.08;;;6.55;;
47103;SDS011;32853;52.164;5.400;2024-01-25T14:49:59;31.58;;;6.78;;
47103;SDS011;32853;52.164;5.400;2024-01-25T15:06:57;29.95;;;5.90;;
47103;SDS011;32853;52.164;5.400;2024-01-25T15:09:32;37.47;;;8.18;;
47103;SDS011;32853;52.164;5.400;2024-01-25T15:12:03;32.13;;;5.88;;
47103;SDS011;32853;52.164;5.400;2024-01-25T15:14:40;29.33;;;7.05;;
47103;SDS011;32853;52.164;5.400;2024-01-25T15:17:11;29.45;;;6.28;;
47103;SDS011;32853;52.164;5.400;2024-01-25T15:19:37;32.15;;;7.88;;
47103;SDS011;32853;52.164;5.400;2024-01-25T15:22:03;24.33;;;7.13;;
47103;SDS011;32853;52.164;5.400;2024-01-25T15:24:29;33.40;;;7.93;;
47103;SDS011;32853;52.164;5.400;2024-01-25T15:26:56;28.65;;;7.43;;
47103;SDS011;32853;52.164;5.400;2024-01-25T15:29:26;30.35;;;7.97;;
47103;SDS011;32853;52.164;5.400;2024-01-25T15:31:55;24.98;;;6.82;;
47103;SDS011;32853;52.164;5.400;2024-01-25T15:34:21;40.83;;;8.88;;
47103;SDS011;32853;52.164;5.400;2024-01-25T15:36:46;28.00;;;8.25;;
47103;SDS011;32853;52.164;5.400;2024-01-25T15:39:12;38.10;;;9.45;;
47103;SDS011;32853;52.164;5.400;2024-01-25T15:41:38;40.65;;;8.27;;
47103;SDS011;32853;52.164;5.400;2024-01-25T15:44:13;32.58;;;8.57;;
47103;SDS011;32853;52.164;5.400;2024-01-25T15:46:39;30.33;;;7.93;;
47103;SDS011;32853;52.164;5.400;2024-01-25T15:51:54;36.90;;;8.55;;
47103;SDS011;32853;52.164;5.400;2024-01-25T15:54:21;39.30;;;9.48;;
47103;SDS011;32853;52.164;5.400;2024-01-25T15:56:47;32.97;;;9.35;;
47103;SDS011;32853;52.164;5.400;2024-01-25T15:59:30;36.92;;;9.65;;
47103;SDS011;32853;52.164;5.400;2024-01-25T16:02:01;32.38;;;8.48;;
47103;SDS011;32853;52.164;5.400;2024-01-25T16:04:26;29.08;;;8.32;;
47103;SDS011;32853;52.164;5.400;2024-01-25T16:06:54;43.15;;;9.93;;
47103;SDS011;32853;52.164;5.400;2024-01-25T16:09:22;26.38;;;10.07;;
47103;SDS011;32853;52.164;5.400;2024-01-25T16:11:50;41.28;;;10.10;;
47103;SDS011;32853;52.164;5.400;2024-01-25T16:14:16;23.75;;;8.50;;
47103;SDS011;32853;52.164;5.400;2024-01-25T16:16:41;43.58;;;10.68;;
47103;SDS011;32853;52.164;5.400;2024-01-25T16:21:57;25.63;;;9.10;;
47103;SDS011;32853;52.164;5.400;2024-01-25T16:27:23;32.22;;;10.63;;
47103;SDS011;32853;52.164;5.400;2024-01-25T16:29:56;25.75;;;8.90;;
47103;SDS011;32853;52.164;5.400;2024-01-25T16:32:22;36.75;;;11.27;;
47103;SDS011;32853;52.164;5.400;2024-01-25T16:34:47;26.02;;;9.15;;
47103;SDS011;32853;52.164;5.400;2024-01-25T16:37:13;29.27;;;11.57;;
47103;SDS011;32853;52.164;5.400;2024-01-25T16:39:39;39.30;;;13.07;;
47103;SDS011;32853;52.164;5.400;2024-01-25T16:42:05;37.72;;;11.02;;
47103;SDS011;32853;52.164;5.400;2024-01-25T16:44:30;32.15;;;9.65;;
47103;SDS011;32853;52.164;5.400;2024-01-25T16:46:56;35.25;;;11.65;;
47103;SDS011;32853;52.164;5.400;2024-01-25T16:49:24;23.90;;;10.38;;
47103;SDS011;32853;52.164;5.400;2024-01-25T16:51:54;25.98;;;9.73;;
47103;SDS011;32853;52.164;5.400;2024-01-25T16:54:21;21.85;;;9.20;;
47103;SDS011;32853;52.164;5.400;2024-01-25T16:56:48;28.45;;;9.88;;
47103;SDS011;32853;52.164;5.400;2024-01-25T17:02:19;27.98;;;10.68;;
47103;SDS011;32853;52.164;5.400;2024-01-25T17:07:14;25.52;;;10.77;;
47103;SDS011;32853;52.164;5.400;2024-01-25T17:09:42;25.75;;;11.25;;
47103;SDS011;32853;52.164;5.400;2024-01-25T17:12:08;28.05;;;11.25;;
47103;SDS011;32853;52.164;5.400;2024-01-25T17:14:36;32.75;;;11.13;;
47103;SDS011;32853;52.164;5.400;2024-01-25T17:17:16;25.13;;;11.40;;
47103;SDS011;32853;52.164;5.400;2024-01-25T17:19:56;29.75;;;11.45;;
47103;SDS011;32853;52.164;5.400;2024-01-25T17:22:25;32.10;;;12.13;;
47103;SDS011;32853;52.164;5.400;2024-01-25T17:24:52;34.33;;;11.82;;
47103;SDS011;32853;52.164;5.400;2024-01-25T17:27:45;29.67;;;11.18;;
47103;SDS011;32853;52.164;5.400;2024-01-25T17:30:14;31.15;;;10.32;;
47103;SDS011;32853;52.164;5.400;2024-01-25T17:32:45;35.78;;;11.68;;
47103;SDS011;32853;52.164;5.400;2024-01-25T17:35:19;23.98;;;8.57;;
47103;SDS011;32853;52.164;5.400;2024-01-25T17:40:22;31.38;;;11.60;;
47103;SDS011;32853;52.164;5.400;2024-01-25T17:42:49;33.38;;;11.98;;
47103;SDS011;32853;52.164;5.400;2024-01-25T17:45:32;30.40;;;11.07;;
47103;SDS011;32853;52.164;5.400;2024-01-25T17:50:24;34.67;;;13.57;;
47103;SDS011;32853;52.164;5.400;2024-01-25T17:53:02;40.67;;;13.35;;
47103;SDS011;32853;52.164;5.400;2024-01-25T17:55:32;34.58;;;13.70;;
47103;SDS011;32853;52.164;5.400;2024-01-25T17:57:59;38.10;;;12.88;;
47103;SDS011;32853;52.164;5.400;2024-01-25T18:00:25;36.40;;;15.05;;
47103;SDS011;32853;52.164;5.400;2024-01-25T18:02:53;34.67;;;12.93;;
47103;SDS011;32853;52.164;5.400;2024-01-25T18:08:02;41.50;;;13.63;;
47103;SDS011;32853;52.164;5.400;2024-01-25T18:10:28;30.80;;;13.30;;
47103;SDS011;32853;52.164;5.400;2024-01-25T18:12:57;34.83;;;12.38;;
47103;SDS011;32853;52.164;5.400;2024-01-25T18:15:23;32.03;;;13.75;;
47103;SDS011;32853;52.164;5.400;2024-01-25T18:17:49;34.20;;;11.35;;
47103;SDS011;32853;52.164;5.400;2024-01-25T18:23:38;36.92;;;14.65;;
47103;SDS011;32853;52.164;5.400;2024-01-25T18:26:17;34.40;;;13.35;;
47103;SDS011;32853;52.164;5.400;2024-01-25T18:46:55;45.53;;;12.82;;
47103;SDS011;32853;52.164;5.400;2024-01-25T18:49:21;48.20;;;13.73;;
47103;SDS011;32853;52.164;5.400;2024-01-25T18:51:46;38.42;;;13.05;;
47103;SDS011;32853;52.164;5.400;2024-01-25T18:54:12;33.55;;;12.27;;
47103;SDS011;32853;52.164;5.400;2024-01-25T18:56:41;39.50;;;13.80;;
47103;SDS011;32853;52.164;5.400;2024-01-25T18:59:16;46.15;;;15.93;;
47103;SDS011;32853;52.164;5.400;2024-01-25T19:01:45;34.50;;;14.15;;
47103;SDS011;32853;52.164;5.400;2024-01-25T19:04:16;43.78;;;16.10;;
47103;SDS011;32853;52.164;5.400;2024-01-25T19:06:41;37.85;;;15.70;;
47103;SDS011;32853;52.164;5.400;2024-01-25T19:09:23;51.88;;;15.57;;
47103;SDS011;32853;52.164;5.400;2024-01-25T19:12:12;47.42;;;16.95;;
47103;SDS011;32853;52.164;5.400;2024-01-25T19:14:39;40.20;;;14.38;;
47103;SDS011;32853;52.164;5.400;2024-01-25T19:20:41;53.22;;;14.90;;
47103;SDS011;32853;52.164;5.400;2024-01-25T19:23:08;36.28;;;14.73;;